sensor_id;sensor_type;location;lat;lon;timestamp;P1;durP1;ratioP1;P2;durP2;ratioP2
23230;SDS011;11784;49.818;8.632;2023-04-02T00:00:32;0.65;;;0.30;;
23230;SDS011;11784;49.818;8.632;2023-04-02T00:03:00;0.68;;;0.60;;
23230;SDS011;11784;49.818;8.632;2023-04-02T00:05:42;0.80;;;0.50;;
23230;SDS011;11784;49.818;8.632;2023-04-02T00:08:57;1.33;;;0.60;;
23230;SDS011;11784;49.818;8.632;2023-04-02T00:11:05;0.57;;;0.52;;
23230;SDS011;11784;49.818;8.632;2023-04-02T00:13:33;0.90;;;0.50;;
23230;SDS011;11784;49.818;8.632;2023-04-02T00:16:04;1.08;;;0.98;;
23230;SDS011;11784;49.818;8.632;2023-04-02T00:18:32;0.55;;;0.50;;
23230;SDS011;11784;49.818;8.632;2023-04-02T00:23:43;0.63;;;0.40;;
23230;SDS011;11784;49.818;8.632;2023-04-02T00:26:22;0.70;;;0.50;;
23230;SDS011;11784;49.818;8.632;2023-04-02T00:28:55;0.88;;;0.50;;
23230;SDS011;11784;49.818;8.632;2023-04-02T00:31:21;0.40;;;0.40;;
23230;SDS011;11784;49.818;8.632;2023-04-02T00:33:48;1.20;;;0.40;;
23230;SDS011;11784;49.818;8.632;2023-04-02T00:36:14;0.70;;;0.55;;
23230;SDS011;11784;49.818;8.632;2023-04-02T00:38:43;0.30;;;0.30;;
23230;SDS011;11784;49.818;8.632;2023-04-02T00:41:15;1.15;;;0.57;;
23230;SDS011;11784;49.818;8.632;2023-04-02T00:43:45;0.68;;;0.57;;
23230;SDS011;11784;49.818;8.632;2023-04-02T00:46:15;0.88;;;0.57;;
23230;SDS011;11784;49.818;8.632;2023-04-02T00:52:19;3.25;;;0.77;;
23230;SDS011;11784;49.818;8.632;2023-04-02T00:54:24;0.80;;;0.65;;
23230;SDS011;11784;49.818;8.632;2023-04-02T00:56:54;2.55;;;0.65;;
23230;SDS011;11784;49.818;8.632;2023-04-02T01:01:57;1.17;;;0.77;;
23230;SDS011;11784;49.818;8.632;2023-04-02T01:04:39;12.77;;;1.73;;
23230;SDS011;11784;49.818;8.632;2023-04-02T01:07:05;2.53;;;0.73;;
23230;SDS011;11784;49.818;8.632;2023-04-02T01:09:41;1.08;;;0.77;;
23230;SDS011;11784;49.818;8.632;2023-04-02T01:12:45;3.47;;;0.57;;
23230;SDS011;11784;49.818;8.632;2023-04-02T01:15:24;7.10;;;1.00;;
23230;SDS011;11784;49.818;8.632;2023-04-02T01:18:03;0.73;;;0.73;;
23230;SDS011;11784;49.818;8.632;2023-04-02T01:21:02;0.70;;;0.70;;
23230;SDS011;11784;49.818;8.632;2023-04-02T01:23:37;2.00;;;0.77;;
23230;SDS011;11784;49.818;8.632;2023-04-02T01:26:17;1.48;;;0.75;;
23230;SDS011;11784;49.818;8.632;2023-04-02T01:29:11;1.60;;;0.65;;
23230;SDS011;11784;49.818;8.632;2023-04-02T01:31:40;0.60;;;0.47;;
23230;SDS011;11784;49.818;8.632;2023-04-02T01:34:08;1.88;;;0.95;;
23230;SDS011;11784;49.818;8.632;2023-04-02T01:41:59;2.40;;;0.68;;
23230;SDS011;11784;49.818;8.632;2023-04-02T01:44:28;0.70;;;0.57;;
23230;SDS011;11784;49.818;8.632;2023-04-02T01:47:01;1.77;;;0.63;;
23230;SDS011;11784;49.818;8.632;2023-04-02T01:49:30;1.15;;;0.60;;
23230;SDS011;11784;49.818;8.632;2023-04-02T01:51:55;0.63;;;0.50;;
23230;SDS011;11784;49.818;8.632;2023-04-02T01:54:21;0.88;;;0.60;;
23230;SDS011;11784;49.818;8.632;2023-04-02T01:56:47;1.30;;;0.77;;
23230;SDS011;11784;49.818;8.632;2023-04-02T01:59:16;1.42;;;0.60;;
23230;SDS011;11784;49.818;8.632;2023-04-02T02:01:58;0.43;;;0.40;;
23230;SDS011;11784;49.818;8.632;2023-04-02T02:04:25;0.43;;;0.40;;
23230;SDS011;11784;49.818;8.632;2023-04-02T02:06:51;0.82;;;0.50;;
23230;SDS011;11784;49.818;8.632;2023-04-02T02:09:19;0.40;;;0.30;;
23230;SDS011;11784;49.818;8.632;2023-04-02T02:14:16;0.50;;;0.50;;
23230;SDS011;11784;49.818;8.632;2023-04-02T02:16:44;0.77;;;0.52;;
23230;SDS011;11784;49.818;8.632;2023-04-02T02:19:17;1.15;;;0.65;;
23230;SDS011;11784;49.818;8.632;2023-04-02T02:21:45;5.40;;;1.10;;
23230;SDS011;11784;49.818;8.632;2023-04-02T02:24:30;2.10;;;0.60;;
23230;SDS011;11784;49.818;8.632;2023-04-02T02:29:23;1.02;;;0.68;;
23230;SDS011;11784;49.818;8.632;2023-04-02T02:31:51;2.15;;;1.48;;
23230;SDS011;11784;49.818;8.632;2023-04-02T02:34:21;1.00;;;0.50;;
23230;SDS011;11784;49.818;8.632;2023-04-02T02:36:54;1.23;;;0.63;;
23230;SDS011;11784;49.818;8.632;2023-04-02T02:39:25;0.73;;;0.63;;
23230;SDS011;11784;49.818;8.632;2023-04-02T02:44:46;0.77;;;0.40;;
23230;SDS011;11784;49.818;8.632;2023-04-02T02:47:18;0.68;;;0.50;;
23230;SDS011;11784;49.818;8.632;2023-04-02T02:49:50;0.95;;;0.47;;
23230;SDS011;11784;49.818;8.632;2023-04-02T02:52:18;0.52;;;0.40;;
23230;SDS011;11784;49.818;8.632;2023-04-02T02:54:50;0.30;;;0.30;;
23230;SDS011;11784;49.818;8.632;2023-04-02T02:57:24;1.27;;;0.63;;
23230;SDS011;11784;49.818;8.632;2023-04-02T02:59:53;2.42;;;0.47;;
23230;SDS011;11784;49.818;8.632;2023-04-02T03:02:22;3.80;;;0.60;;
23230;SDS011;11784;49.818;8.632;2023-04-02T03:04:49;0.68;;;0.43;;
23230;SDS011;11784;49.818;8.632;2023-04-02T03:07:17;0.85;;;0.57;;
23230;SDS011;11784;49.818;8.632;2023-04-02T03:15:11;0.28;;;0.28;;
23230;SDS011;11784;49.818;8.632;2023-04-02T03:23:26;2.00;;;0.70;;
23230;SDS011;11784;49.818;8.632;2023-04-02T03:29:01;1.30;;;0.45;;
23230;SDS011;11784;49.818;8.632;2023-04-02T03:31:39;3.28;;;1.17;;
23230;SDS011;11784;49.818;8.632;2023-04-02T03:34:10;0.98;;;0.70;;
23230;SDS011;11784;49.818;8.632;2023-04-02T03:36:47;0.75;;;0.63;;
23230;SDS011;11784;49.818;8.632;2023-04-02T03:39:35;3.58;;;0.73;;
23230;SDS011;11784;49.818;8.632;2023-04-02T03:42:08;1.13;;;0.68;;
23230;SDS011;11784;49.818;8.632;2023-04-02T03:44:47;1.92;;;0.90;;
23230;SDS011;11784;49.818;8.632;2023-04-02T03:49:55;1.00;;;0.93;;
23230;SDS011;11784;49.818;8.632;2023-04-02T03:52:27;0.93;;;0.80;;
23230;SDS011;11784;49.818;8.632;2023-04-02T03:54:58;1.08;;;0.82;;
23230;SDS011;11784;49.818;8.632;2023-04-02T03:57:30;0.50;;;0.50;;
23230;SDS011;11784;49.818;8.632;2023-04-02T04:05:31;1.17;;;0.90;;
23230;SDS011;11784;49.818;8.632;2023-04-02T04:08:07;3.80;;;0.90;;
23230;SDS011;11784;49.818;8.632;2023-04-02T04:10:39;1.02;;;0.85;;
23230;SDS011;11784;49.818;8.632;2023-04-02T04:13:28;2.00;;;1.27;;
23230;SDS011;11784;49.818;8.632;2023-04-02T04:16:04;1.67;;;1.00;;
23230;SDS011;11784;49.818;8.632;2023-04-02T04:18:34;0.93;;;0.65;;
23230;SDS011;11784;49.818;8.632;2023-04-02T04:21:18;0.98;;;0.75;;
23230;SDS011;11784;49.818;8.632;2023-04-02T04:23:54;3.65;;;0.93;;
23230;SDS011;11784;49.818;8.632;2023-04-02T04:26:35;2.15;;;1.35;;
23230;SDS011;11784;49.818;8.632;2023-04-02T04:29:14;1.60;;;0.93;;
23230;SDS011;11784;49.818;8.632;2023-04-02T04:31:55;1.00;;;0.70;;
23230;SDS011;11784;49.818;8.632;2023-04-02T04:34:40;1.10;;;0.68;;
23230;SDS011;11784;49.818;8.632;2023-04-02T04:37:22;2.10;;;1.05;;
23230;SDS011;11784;49.818;8.632;2023-04-02T04:39:54;1.73;;;1.00;;
23230;SDS011;11784;49.818;8.632;2023-04-02T04:42:41;1.17;;;0.95;;
23230;SDS011;11784;49.818;8.632;2023-04-02T04:45:15;4.85;;;1.35;;
23230;SDS011;11784;49.818;8.632;2023-04-02T04:48:01;2.10;;;0.80;;
23230;SDS011;11784;49.818;8.632;2023-04-02T04:50:33;1.33;;;1.20;;
23230;SDS011;11784;49.818;8.632;2023-04-02T04:53:13;1.17;;;0.85;;
23230;SDS011;11784;49.818;8.632;2023-04-02T04:55:45;1.35;;;0.77;;
23230;SDS011;11784;49.818;8.632;2023-04-02T05:00:49;1.80;;;1.02;;
23230;SDS011;11784;49.818;8.632;2023-04-02T05:03:30;1.30;;;0.80;;
23230;SDS011;11784;49.818;8.632;2023-04-02T05:06:18;3.95;;;1.08;;
23230;SDS011;11784;49.818;8.632;2023-04-02T05:09:06;1.52;;;0.55;;
23230;SDS011;11784;49.818;8.632;2023-04-02T05:11:44;1.73;;;1.05;;
23230;SDS011;11784;49.818;8.632;2023-04-02T05:15:15;2.00;;;1.23;;
23230;SDS011;11784;49.818;8.632;2023-04-02T05:17:22;4.15;;;0.90;;
23230;SDS011;11784;49.818;8.632;2023-04-02T05:19:54;1.70;;;0.85;;
23230;SDS011;11784;49.818;8.632;2023-04-02T05:22:28;3.08;;;1.17;;
23230;SDS011;11784;49.818;8.632;2023-04-02T05:25:08;1.52;;;1.00;;
23230;SDS011;11784;49.818;8.632;2023-04-02T05:27:50;0.80;;;0.60;;
23230;SDS011;11784;49.818;8.632;2023-04-02T05:32:50;1.13;;;0.85;;
23230;SDS011;11784;49.818;8.632;2023-04-02T05:35:30;0.75;;;0.60;;
23230;SDS011;11784;49.818;8.632;2023-04-02T05:37:58;2.88;;;0.90;;
23230;SDS011;11784;49.818;8.632;2023-04-02T05:40:30;0.95;;;0.88;;
23230;SDS011;11784;49.818;8.632;2023-04-02T05:43:02;0.52;;;0.47;;
23230;SDS011;11784;49.818;8.632;2023-04-02T05:45:34;1.15;;;0.75;;
23230;SDS011;11784;49.818;8.632;2023-04-02T05:48:04;1.08;;;0.73;;
23230;SDS011;11784;49.818;8.632;2023-04-02T05:50:42;1.40;;;0.70;;
23230;SDS011;11784;49.818;8.632;2023-04-02T05:56:03;1.55;;;0.77;;
23230;SDS011;11784;49.818;8.632;2023-04-02T05:58:40;1.58;;;1.00;;
23230;SDS011;11784;49.818;8.632;2023-04-02T06:01:42;1.52;;;0.93;;
23230;SDS011;11784;49.818;8.632;2023-04-02T06:09:35;2.17;;;0.82;;
23230;SDS011;11784;49.818;8.632;2023-04-02T06:12:15;1.35;;;0.90;;
23230;SDS011;11784;49.818;8.632;2023-04-02T06:14:42;1.65;;;1.20;;
23230;SDS011;11784;49.818;8.632;2023-04-02T06:17:15;2.25;;;1.20;;
23230;SDS011;11784;49.818;8.632;2023-04-02T06:19:42;1.73;;;0.60;;
23230;SDS011;11784;49.818;8.632;2023-04-02T06:22:15;3.17;;;1.55;;
23230;SDS011;11784;49.818;8.632;2023-04-02T06:24:59;1.55;;;1.15;;
23230;SDS011;11784;49.818;8.632;2023-04-02T06:27:29;1.17;;;0.82;;
23230;SDS011;11784;49.818;8.632;2023-04-02T06:29:58;0.73;;;0.65;;
23230;SDS011;11784;49.818;8.632;2023-04-02T06:32:29;1.55;;;1.33;;
23230;SDS011;11784;49.818;8.632;2023-04-02T06:34:55;1.25;;;0.90;;
23230;SDS011;11784;49.818;8.632;2023-04-02T06:39:56;1.25;;;0.70;;
23230;SDS011;11784;49.818;8.632;2023-04-02T06:42:30;1.08;;;0.98;;
23230;SDS011;11784;49.818;8.632;2023-04-02T06:45:01;3.05;;;0.95;;
23230;SDS011;11784;49.818;8.632;2023-04-02T06:47:33;1.05;;;0.93;;
23230;SDS011;11784;49.818;8.632;2023-04-02T06:50:12;2.15;;;1.08;;
23230;SDS011;11784;49.818;8.632;2023-04-02T06:52:53;1.23;;;0.95;;
23230;SDS011;11784;49.818;8.632;2023-04-02T06:58:16;1.67;;;1.10;;
23230;SDS011;11784;49.818;8.632;2023-04-02T07:00:44;1.70;;;1.20;;
23230;SDS011;11784;49.818;8.632;2023-04-02T07:05:48;0.90;;;0.77;;
23230;SDS011;11784;49.818;8.632;2023-04-02T07:08:13;1.15;;;0.95;;
23230;SDS011;11784;49.818;8.632;2023-04-02T07:10:39;2.45;;;1.10;;
23230;SDS011;11784;49.818;8.632;2023-04-02T07:13:05;0.93;;;0.82;;
23230;SDS011;11784;49.818;8.632;2023-04-02T07:15:30;1.63;;;1.05;;
23230;SDS011;11784;49.818;8.632;2023-04-02T07:17:56;2.15;;;1.20;;
23230;SDS011;11784;49.818;8.632;2023-04-02T07:20:24;1.38;;;1.08;;
23230;SDS011;11784;49.818;8.632;2023-04-02T07:22:51;2.03;;;0.90;;
23230;SDS011;11784;49.818;8.632;2023-04-02T07:25:16;1.90;;;0.98;;
23230;SDS011;11784;49.818;8.632;2023-04-02T07:27:42;0.98;;;0.70;;
23230;SDS011;11784;49.818;8.632;2023-04-02T07:30:08;1.75;;;0.95;;
23230;SDS011;11784;49.818;8.632;2023-04-02T07:32:34;1.20;;;0.95;;
23230;SDS011;11784;49.818;8.632;2023-04-02T07:35:00;1.58;;;0.95;;
23230;SDS011;11784;49.818;8.632;2023-04-02T07:37:37;1.95;;;1.00;;
23230;SDS011;11784;49.818;8.632;2023-04-02T07:40:08;1.73;;;1.17;;
23230;SDS011;11784;49.818;8.632;2023-04-02T07:42:41;2.05;;;1.05;;
23230;SDS011;11784;49.818;8.632;2023-04-02T07:45:06;2.50;;;1.15;;
23230;SDS011;11784;49.818;8.632;2023-04-02T07:47:32;2.22;;;1.10;;
23230;SDS011;11784;49.818;8.632;2023-04-02T07:49:58;1.85;;;0.95;;
23230;SDS011;11784;49.818;8.632;2023-04-02T07:52:23;1.50;;;1.10;;
23230;SDS011;11784;49.818;8.632;2023-04-02T07:54:49;2.22;;;1.25;;
23230;SDS011;11784;49.818;8.632;2023-04-02T07:57:15;1.15;;;1.02;;
23230;SDS011;11784;49.818;8.632;2023-04-02T07:59:41;2.35;;;1.10;;
23230;SDS011;11784;49.818;8.632;2023-04-02T08:02:13;1.33;;;1.20;;
23230;SDS011;11784;49.818;8.632;2023-04-02T08:04:47;1.52;;;1.27;;
23230;SDS011;11784;49.818;8.632;2023-04-02T08:07:13;2.03;;;1.13;;
23230;SDS011;11784;49.818;8.632;2023-04-02T08:09:39;1.92;;;1.30;;
23230;SDS011;11784;49.818;8.632;2023-04-02T08:12:05;3.55;;;1.42;;
23230;SDS011;11784;49.818;8.632;2023-04-02T08:14:30;1.63;;;1.15;;
23230;SDS011;11784;49.818;8.632;2023-04-02T08:16:56;1.40;;;0.90;;
23230;SDS011;11784;49.818;8.632;2023-04-02T08:19:22;1.13;;;0.75;;
23230;SDS011;11784;49.818;8.632;2023-04-02T08:21:48;1.75;;;1.00;;
23230;SDS011;11784;49.818;8.632;2023-04-02T08:24:16;1.27;;;0.82;;
23230;SDS011;11784;49.818;8.632;2023-04-02T08:26:44;1.88;;;0.68;;
23230;SDS011;11784;49.818;8.632;2023-04-02T08:29:11;0.73;;;0.60;;
23230;SDS011;11784;49.818;8.632;2023-04-02T08:31:36;0.38;;;0.30;;
23230;SDS011;11784;49.818;8.632;2023-04-02T08:34:02;0.63;;;0.30;;
23230;SDS011;11784;49.818;8.632;2023-04-02T08:36:29;0.13;;;0.13;;
23230;SDS011;11784;49.818;8.632;2023-04-02T08:38:57;0.20;;;0.20;;
23230;SDS011;11784;49.818;8.632;2023-04-02T08:41:24;0.32;;;0.20;;
23230;SDS011;11784;49.818;8.632;2023-04-02T08:46:47;1.05;;;0.30;;
23230;SDS011;11784;49.818;8.632;2023-04-02T08:49:28;0.73;;;0.20;;
23230;SDS011;11784;49.818;8.632;2023-04-02T08:52:23;0.70;;;0.20;;
23230;SDS011;11784;49.818;8.632;2023-04-02T08:54:50;0.20;;;0.20;;
23230;SDS011;11784;49.818;8.632;2023-04-02T08:57:23;0.10;;;0.10;;
23230;SDS011;11784;49.818;8.632;2023-04-02T09:02:47;0.10;;;0.10;;
23230;SDS011;11784;49.818;8.632;2023-04-02T09:05:21;0.20;;;0.20;;
23230;SDS011;11784;49.818;8.632;2023-04-02T09:10:18;0.20;;;0.20;;
23230;SDS011;11784;49.818;8.632;2023-04-02T09:12:45;0.20;;;0.20;;
23230;SDS011;11784;49.818;8.632;2023-04-02T09:15:28;0.22;;;0.22;;
23230;SDS011;11784;49.818;8.632;2023-04-02T09:18:14;0.25;;;0.20;;
23230;SDS011;11784;49.818;8.632;2023-04-02T09:20:41;2.30;;;0.25;;
23230;SDS011;11784;49.818;8.632;2023-04-02T09:23:21;0.65;;;0.30;;
23230;SDS011;11784;49.818;8.632;2023-04-02T09:25:51;0.30;;;0.20;;
23230;SDS011;11784;49.818;8.632;2023-04-02T09:28:17;0.60;;;0.40;;
23230;SDS011;11784;49.818;8.632;2023-04-02T09:33:48;0.50;;;0.38;;
23230;SDS011;11784;49.818;8.632;2023-04-02T09:36:34;1.00;;;0.40;;
23230;SDS011;11784;49.818;8.632;2023-04-02T09:39:05;0.80;;;0.30;;
23230;SDS011;11784;49.818;8.632;2023-04-02T09:41:43;2.67;;;0.20;;
23230;SDS011;11784;49.818;8.632;2023-04-02T09:44:23;1.35;;;0.55;;
23230;SDS011;11784;49.818;8.632;2023-04-02T09:47:00;0.20;;;0.20;;
23230;SDS011;11784;49.818;8.632;2023-04-02T09:49:34;0.13;;;0.13;;
23230;SDS011;11784;49.818;8.632;2023-04-02T09:52:06;0.25;;;0.25;;
23230;SDS011;11784;49.818;8.632;2023-04-02T09:54:35;0.30;;;0.20;;
23230;SDS011;11784;49.818;8.632;2023-04-02T09:57:20;0.20;;;0.20;;
23230;SDS011;11784;49.818;8.632;2023-04-02T10:02:35;0.20;;;0.20;;
23230;SDS011;11784;49.818;8.632;2023-04-02T10:05:04;0.20;;;0.20;;
23230;SDS011;11784;49.818;8.632;2023-04-02T10:07:38;0.73;;;0.30;;
23230;SDS011;11784;49.818;8.632;2023-04-02T10:13:06;0.15;;;0.15;;
23230;SDS011;11784;49.818;8.632;2023-04-02T10:15:55;0.40;;;0.20;;
23230;SDS011;11784;49.818;8.632;2023-04-02T10:18:45;0.10;;;0.10;;
23230;SDS011;11784;49.818;8.632;2023-04-02T10:21:16;0.20;;;0.20;;
23230;SDS011;11784;49.818;8.632;2023-04-02T10:23:46;0.20;;;0.20;;
23230;SDS011;11784;49.818;8.632;2023-04-02T10:34:51;0.28;;;0.20;;
23230;SDS011;11784;49.818;8.632;2023-04-02T10:40:26;0.30;;;0.30;;
23230;SDS011;11784;49.818;8.632;2023-04-02T10:43:27;0.20;;;0.20;;
23230;SDS011;11784;49.818;8.632;2023-04-02T10:46:18;0.68;;;0.50;;
23230;SDS011;11784;49.818;8.632;2023-04-02T10:49:10;0.65;;;0.50;;
23230;SDS011;11784;49.818;8.632;2023-04-02T10:54:47;0.20;;;0.20;;
23230;SDS011;11784;49.818;8.632;2023-04-02T10:57:23;0.40;;;0.40;;
23230;SDS011;11784;49.818;8.632;2023-04-02T10:59:56;3.25;;;0.38;;
23230;SDS011;11784;49.818;8.632;2023-04-02T11:05:32;0.40;;;0.20;;
23230;SDS011;11784;49.818;8.632;2023-04-02T11:08:26;0.40;;;0.40;;
23230;SDS011;11784;49.818;8.632;2023-04-02T11:10:57;0.30;;;0.28;;
23230;SDS011;11784;49.818;8.632;2023-04-02T11:13:30;0.30;;;0.30;;
23230;SDS011;11784;49.818;8.632;2023-04-02T11:15:57;0.25;;;0.25;;
23230;SDS011;11784;49.818;8.632;2023-04-02T11:18:33;0.45;;;0.45;;
23230;SDS011;11784;49.818;8.632;2023-04-02T11:24:22;0.20;;;0.20;;
23230;SDS011;11784;49.818;8.632;2023-04-02T11:27:02;0.20;;;0.20;;
23230;SDS011;11784;49.818;8.632;2023-04-02T11:29:31;0.20;;;0.20;;
23230;SDS011;11784;49.818;8.632;2023-04-02T11:50:35;0.30;;;0.30;;
23230;SDS011;11784;49.818;8.632;2023-04-02T11:55:36;0.20;;;0.20;;
23230;SDS011;11784;49.818;8.632;2023-04-02T12:01:42;0.70;;;0.50;;
23230;SDS011;11784;49.818;8.632;2023-04-02T12:04:33;0.65;;;0.47;;
23230;SDS011;11784;49.818;8.632;2023-04-02T12:12:52;0.50;;;0.43;;
23230;SDS011;11784;49.818;8.632;2023-04-02T12:20:48;0.40;;;0.40;;
23230;SDS011;11784;49.818;8.632;2023-04-02T12:23:20;0.65;;;0.43;;
23230;SDS011;11784;49.818;8.632;2023-04-02T12:26:00;0.40;;;0.40;;
23230;SDS011;11784;49.818;8.632;2023-04-02T12:28:31;0.52;;;0.40;;
23230;SDS011;11784;49.818;8.632;2023-04-02T12:33:36;0.60;;;0.60;;
23230;SDS011;11784;49.818;8.632;2023-04-02T12:36:20;0.63;;;0.37;;
23230;SDS011;11784;49.818;8.632;2023-04-02T12:38:53;0.38;;;0.30;;
23230;SDS011;11784;49.818;8.632;2023-04-02T12:41:24;0.82;;;0.40;;
23230;SDS011;11784;49.818;8.632;2023-04-02T12:43:59;3.00;;;0.85;;
23230;SDS011;11784;49.818;8.632;2023-04-02T12:46:30;0.55;;;0.50;;
23230;SDS011;11784;49.818;8.632;2023-04-02T12:49:10;0.47;;;0.40;;
23230;SDS011;11784;49.818;8.632;2023-04-02T12:51:51;0.93;;;0.52;;
23230;SDS011;11784;49.818;8.632;2023-04-02T12:54:18;0.93;;;0.32;;
23230;SDS011;11784;49.818;8.632;2023-04-02T12:56:45;0.95;;;0.55;;
23230;SDS011;11784;49.818;8.632;2023-04-02T13:01:54;1.33;;;0.63;;
23230;SDS011;11784;49.818;8.632;2023-04-02T13:04:22;0.50;;;0.50;;
23230;SDS011;11784;49.818;8.632;2023-04-02T13:06:48;1.38;;;0.63;;
23230;SDS011;11784;49.818;8.632;2023-04-02T13:09:27;0.45;;;0.45;;
23230;SDS011;11784;49.818;8.632;2023-04-02T13:11:55;0.90;;;0.65;;
23230;SDS011;11784;49.818;8.632;2023-04-02T13:14:21;0.63;;;0.50;;
23230;SDS011;11784;49.818;8.632;2023-04-02T13:16:48;1.02;;;0.73;;
23230;SDS011;11784;49.818;8.632;2023-04-02T13:19:30;1.33;;;0.60;;
23230;SDS011;11784;49.818;8.632;2023-04-02T13:21:58;0.85;;;0.55;;
23230;SDS011;11784;49.818;8.632;2023-04-02T13:24:31;0.40;;;0.40;;
23230;SDS011;11784;49.818;8.632;2023-04-02T13:26:58;1.65;;;0.40;;
23230;SDS011;11784;49.818;8.632;2023-04-02T13:29:26;1.05;;;0.73;;
23230;SDS011;11784;49.818;8.632;2023-04-02T13:31:59;0.95;;;0.73;;
23230;SDS011;11784;49.818;8.632;2023-04-02T13:34:26;1.30;;;0.68;;
23230;SDS011;11784;49.818;8.632;2023-04-02T13:36:52;0.82;;;0.63;;
23230;SDS011;11784;49.818;8.632;2023-04-02T13:39:18;0.82;;;0.63;;
23230;SDS011;11784;49.818;8.632;2023-04-02T13:42:05;1.50;;;0.85;;
23230;SDS011;11784;49.818;8.632;2023-04-02T13:44:33;1.27;;;0.95;;
23230;SDS011;11784;49.818;8.632;2023-04-02T13:47:00;0.55;;;0.43;;
23230;SDS011;11784;49.818;8.632;2023-04-02T13:49:27;1.13;;;0.60;;
23230;SDS011;11784;49.818;8.632;2023-04-02T13:51:54;1.38;;;0.73;;
23230;SDS011;11784;49.818;8.632;2023-04-02T13:54:26;0.40;;;0.40;;
23230;SDS011;11784;49.818;8.632;2023-04-02T13:56:59;1.48;;;0.75;;
23230;SDS011;11784;49.818;8.632;2023-04-02T13:59:24;1.40;;;0.95;;
23230;SDS011;11784;49.818;8.632;2023-04-02T14:01:52;1.80;;;0.88;;
23230;SDS011;11784;49.818;8.632;2023-04-02T14:04:23;3.13;;;0.65;;
23230;SDS011;11784;49.818;8.632;2023-04-02T14:17:24;1.45;;;0.95;;
23230;SDS011;11784;49.818;8.632;2023-04-02T14:20:11;1.23;;;0.82;;
23230;SDS011;11784;49.818;8.632;2023-04-02T14:23:02;0.95;;;0.70;;
23230;SDS011;11784;49.818;8.632;2023-04-02T14:26:03;2.05;;;0.95;;
23230;SDS011;11784;49.818;8.632;2023-04-02T14:28:58;1.55;;;0.95;;
23230;SDS011;11784;49.818;8.632;2023-04-02T14:34:33;1.83;;;1.10;;
23230;SDS011;11784;49.818;8.632;2023-04-02T14:42:43;1.48;;;0.90;;
23230;SDS011;11784;49.818;8.632;2023-04-02T14:45:15;1.35;;;0.85;;
23230;SDS011;11784;49.818;8.632;2023-04-02T14:47:47;1.48;;;1.05;;
23230;SDS011;11784;49.818;8.632;2023-04-02T14:50:28;1.88;;;1.13;;
23230;SDS011;11784;49.818;8.632;2023-04-02T14:53:00;1.38;;;1.00;;
23230;SDS011;11784;49.818;8.632;2023-04-02T14:55:32;1.70;;;0.82;;
23230;SDS011;11784;49.818;8.632;2023-04-02T15:01:00;1.40;;;1.00;;
23230;SDS011;11784;49.818;8.632;2023-04-02T15:03:32;1.92;;;1.02;;
23230;SDS011;11784;49.818;8.632;2023-04-02T15:06:05;1.80;;;1.13;;
23230;SDS011;11784;49.818;8.632;2023-04-02T15:08:36;1.00;;;0.50;;
23230;SDS011;11784;49.818;8.632;2023-04-02T15:11:43;1.38;;;1.05;;
23230;SDS011;11784;49.818;8.632;2023-04-02T15:16:42;1.88;;;1.00;;
23230;SDS011;11784;49.818;8.632;2023-04-02T15:19:09;1.33;;;1.05;;
23230;SDS011;11784;49.818;8.632;2023-04-02T15:24:39;1.90;;;1.05;;
23230;SDS011;11784;49.818;8.632;2023-04-02T15:30:28;2.13;;;1.60;;
23230;SDS011;11784;49.818;8.632;2023-04-02T15:33:23;1.33;;;0.95;;
23230;SDS011;11784;49.818;8.632;2023-04-02T15:36:03;4.20;;;1.00;;
23230;SDS011;11784;49.818;8.632;2023-04-02T15:38:42;1.40;;;1.20;;
23230;SDS011;11784;49.818;8.632;2023-04-02T15:43:43;2.53;;;1.23;;
23230;SDS011;11784;49.818;8.632;2023-04-02T15:51:24;2.10;;;1.20;;
23230;SDS011;11784;49.818;8.632;2023-04-02T15:57:04;2.50;;;1.55;;
23230;SDS011;11784;49.818;8.632;2023-04-02T16:11:02;1.90;;;1.00;;
23230;SDS011;11784;49.818;8.632;2023-04-02T16:13:35;1.65;;;1.10;;
23230;SDS011;11784;49.818;8.632;2023-04-02T16:16:22;1.60;;;1.00;;
23230;SDS011;11784;49.818;8.632;2023-04-02T16:18:59;1.70;;;1.20;;
23230;SDS011;11784;49.818;8.632;2023-04-02T16:21:39;3.42;;;1.73;;
23230;SDS011;11784;49.818;8.632;2023-04-02T16:24:11;1.60;;;1.00;;
23230;SDS011;11784;49.818;8.632;2023-04-02T16:26:43;1.83;;;1.20;;
23230;SDS011;11784;49.818;8.632;2023-04-02T16:29:27;1.75;;;1.02;;
23230;SDS011;11784;49.818;8.632;2023-04-02T16:34:35;2.65;;;1.63;;
23230;SDS011;11784;49.818;8.632;2023-04-02T16:37:30;1.73;;;1.15;;
23230;SDS011;11784;49.818;8.632;2023-04-02T16:51:25;2.50;;;1.42;;
23230;SDS011;11784;49.818;8.632;2023-04-02T16:57:08;2.95;;;0.82;;
23230;SDS011;11784;49.818;8.632;2023-04-02T17:02:48;1.45;;;1.17;;
23230;SDS011;11784;49.818;8.632;2023-04-02T17:08:10;1.50;;;1.00;;
23230;SDS011;11784;49.818;8.632;2023-04-02T17:13:39;1.00;;;0.90;;
23230;SDS011;11784;49.818;8.632;2023-04-02T17:16:26;3.85;;;1.20;;
23230;SDS011;11784;49.818;8.632;2023-04-02T17:19:08;2.08;;;1.02;;
23230;SDS011;11784;49.818;8.632;2023-04-02T17:21:49;3.72;;;0.95;;
23230;SDS011;11784;49.818;8.632;2023-04-02T17:24:38;1.25;;;0.80;;
23230;SDS011;11784;49.818;8.632;2023-04-02T17:27:16;2.10;;;1.25;;
23230;SDS011;11784;49.818;8.632;2023-04-02T17:29:54;1.05;;;0.95;;
23230;SDS011;11784;49.818;8.632;2023-04-02T17:32:28;2.38;;;1.10;;
23230;SDS011;11784;49.818;8.632;2023-04-02T17:34:57;0.85;;;0.80;;
23230;SDS011;11784;49.818;8.632;2023-04-02T17:41:22;2.15;;;0.90;;
23230;SDS011;11784;49.818;8.632;2023-04-02T17:43:46;1.83;;;1.00;;
23230;SDS011;11784;49.818;8.632;2023-04-02T17:49:10;1.98;;;1.00;;
23230;SDS011;11784;49.818;8.632;2023-04-02T17:52:12;1.63;;;0.90;;
23230;SDS011;11784;49.818;8.632;2023-04-02T17:55:17;2.78;;;1.08;;
23230;SDS011;11784;49.818;8.632;2023-04-02T17:58:02;1.52;;;0.70;;
23230;SDS011;11784;49.818;8.632;2023-04-02T18:00:44;2.13;;;1.30;;
23230;SDS011;11784;49.818;8.632;2023-04-02T18:03:48;1.63;;;0.90;;
23230;SDS011;11784;49.818;8.632;2023-04-02T18:06:20;2.92;;;0.80;;
23230;SDS011;11784;49.818;8.632;2023-04-02T18:14:28;3.35;;;1.08;;
23230;SDS011;11784;49.818;8.632;2023-04-02T18:20:37;1.30;;;0.70;;
23230;SDS011;11784;49.818;8.632;2023-04-02T18:25:54;1.75;;;1.20;;
23230;SDS011;11784;49.818;8.632;2023-04-02T18:28:45;2.13;;;1.05;;
23230;SDS011;11784;49.818;8.632;2023-04-02T18:31:18;1.02;;;0.82;;
23230;SDS011;11784;49.818;8.632;2023-04-02T18:34:11;2.15;;;1.10;;
23230;SDS011;11784;49.818;8.632;2023-04-02T18:42:09;0.68;;;0.50;;
23230;SDS011;11784;49.818;8.632;2023-04-02T18:47:29;3.83;;;1.75;;
23230;SDS011;11784;49.818;8.632;2023-04-02T18:50:30;1.50;;;0.93;;
23230;SDS011;11784;49.818;8.632;2023-04-02T18:53:09;0.85;;;0.73;;
23230;SDS011;11784;49.818;8.632;2023-04-02T18:55:38;0.77;;;0.70;;
23230;SDS011;11784;49.818;8.632;2023-04-02T18:58:37;1.77;;;0.77;;
23230;SDS011;11784;49.818;8.632;2023-04-02T19:01:32;1.13;;;0.88;;
23230;SDS011;11784;49.818;8.632;2023-04-02T19:04:06;5.78;;;0.68;;
23230;SDS011;11784;49.818;8.632;2023-04-02T19:06:40;1.52;;;1.00;;
23230;SDS011;11784;49.818;8.632;2023-04-02T19:09:13;1.67;;;1.05;;
23230;SDS011;11784;49.818;8.632;2023-04-02T19:11:45;2.42;;;1.10;;
23230;SDS011;11784;49.818;8.632;2023-04-02T19:14:17;1.77;;;0.93;;
23230;SDS011;11784;49.818;8.632;2023-04-02T19:20:03;1.15;;;0.70;;
23230;SDS011;11784;49.818;8.632;2023-04-02T19:45:17;1.00;;;0.80;;
23230;SDS011;11784;49.818;8.632;2023-04-02T19:47:57;1.50;;;0.88;;
23230;SDS011;11784;49.818;8.632;2023-04-02T19:50:26;2.58;;;0.88;;
23230;SDS011;11784;49.818;8.632;2023-04-02T19:52:54;0.52;;;0.52;;
23230;SDS011;11784;49.818;8.632;2023-04-02T19:55:20;1.25;;;0.82;;
23230;SDS011;11784;49.818;8.632;2023-04-02T19:57:45;1.77;;;1.10;;
23230;SDS011;11784;49.818;8.632;2023-04-02T20:00:12;2.45;;;0.88;;
23230;SDS011;11784;49.818;8.632;2023-04-02T20:02:39;1.00;;;0.77;;
23230;SDS011;11784;49.818;8.632;2023-04-02T20:05:05;1.25;;;0.88;;